createdAt,value
2023-02-20T00:02:28.742Z,10.20
2023-02-20T00:05:02.058Z,10.55
2023-02-20T00:07:35.820Z,10.74
2023-02-20T00:10:10.159Z,10.83
2023-02-20T00:12:45.560Z,10.97
2023-02-20T00:15:20.986Z,11.06
2023-02-20T00:17:55.986Z,11.11
2023-02-20T00:20:30.435Z,11.29
2023-02-20T00:23:03.874Z,11.35
2023-02-20T00:25:37.332Z,11.38
2023-02-20T00:28:10.522Z,11.48
2023-02-20T00:30:44.290Z,11.54
2023-02-20T00:33:19.322Z,11.61
2023-02-20T00:35:52.710Z,11.67
2023-02-20T00:38:26.073Z,11.73
2023-02-20T00:40:59.450Z,11.83
2023-02-20T00:43:36.339Z,11.91
2023-02-20T00:46:13.270Z,11.96
2023-02-20T00:48:49.552Z,11.88
2023-02-20T00:51:23.485Z,12.08
2023-02-20T00:53:56.781Z,12.04
2023-02-20T00:56:30.577Z,12.10
2023-02-20T00:59:04.084Z,12.04
2023-02-20T01:01:37.919Z,12.09
2023-02-20T01:04:12.614Z,11.98
2023-02-20T01:06:45.892Z,11.99
2023-02-20T01:09:19.040Z,12.00
2023-02-20T01:11:54.842Z,11.97
2023-02-20T01:14:28.951Z,11.88
2023-02-20T01:17:03.180Z,11.88
2023-02-20T01:19:37.887Z,11.87
2023-02-20T01:22:11.064Z,11.85
2023-02-20T01:24:44.643Z,11.90
2023-02-20T01:27:18.217Z,11.87
2023-02-20T01:29:51.544Z,11.72
2023-02-20T01:32:25.206Z,11.74
2023-02-20T01:34:59.877Z,11.74
2023-02-20T01:37:33.513Z,11.66
2023-02-20T01:40:08.183Z,11.63
2023-02-20T01:42:41.776Z,11.55
2023-02-20T01:45:21.052Z,11.57
2023-02-20T01:47:56.994Z,11.64
2023-02-20T01:50:34.971Z,11.52
2023-02-20T01:53:11.612Z,11.51
2023-02-20T01:55:49.671Z,11.55
2023-02-20T01:58:26.800Z,11.56
2023-02-20T02:01:01.757Z,11.54
2023-02-20T02:03:38.856Z,11.60
2023-02-20T02:06:15.987Z,11.55
2023-02-20T02:08:49.553Z,11.69
2023-02-20T02:11:25.301Z,11.49
2023-02-20T02:13:59.137Z,11.77
2023-02-20T02:16:42.042Z,11.82
2023-02-20T02:19:35.357Z,11.85
2023-02-20T02:22:37.123Z,11.88
2023-02-20T02:25:39.612Z,11.87
2023-02-20T02:28:39.977Z,11.90
2023-02-20T02:31:50.655Z,11.89
2023-02-20T02:34:59.222Z,11.89
2023-02-20T02:37:42.425Z,11.87
2023-02-20T02:40:25.490Z,11.84
2023-02-20T02:43:08.064Z,11.82
2023-02-20T02:45:50.479Z,11.65
2023-02-20T02:48:31.639Z,11.70
2023-02-20T02:51:11.550Z,11.65
2023-02-20T02:54:05.929Z,11.63
2023-02-20T02:56:41.480Z,11.59
2023-02-20T02:59:18.633Z,11.49
2023-02-20T03:01:56.939Z,11.46
2023-02-20T03:04:34.693Z,11.43
2023-02-20T03:07:12.157Z,11.35
2023-02-20T03:09:52.153Z,10.98
2023-02-20T03:12:28.030Z,11.26
2023-02-20T03:15:23.417Z,11.31
2023-02-20T03:18:10.697Z,11.30
2023-02-20T03:20:47.710Z,11.29
2023-02-20T03:23:26.454Z,11.25
2023-02-20T03:26:04.423Z,11.23
2023-02-20T03:28:42.181Z,11.19
2023-02-20T03:31:19.817Z,11.18
2023-02-20T03:34:21.800Z,11.20
2023-02-20T03:37:18.660Z,11.16
2023-02-20T03:40:13.701Z,11.18
2023-02-20T03:43:09.341Z,11.16
2023-02-20T03:45:45.120Z,11.11
2023-02-20T03:48:27.321Z,11.10
2023-02-20T03:51:18.679Z,11.08
2023-02-20T03:53:53.360Z,10.98
2023-02-20T03:56:31.631Z,11.07
2023-02-20T03:59:13.844Z,11.06
2023-02-20T04:01:52.177Z,11.05
2023-02-20T04:04:31.937Z,11.04
2023-02-20T04:07:11.293Z,10.98
2023-02-20T04:09:47.356Z,10.96
2023-02-20T04:12:25.762Z,10.94
2023-02-20T04:15:03.075Z,10.88
2023-02-20T04:17:41.248Z,10.90
2023-02-20T04:20:14.789Z,10.92
2023-02-20T04:22:50.845Z,10.86
2023-02-20T04:25:35.656Z,10.87
2023-02-20T04:28:09.392Z,10.83
2023-02-20T04:30:44.485Z,10.81
2023-02-20T04:33:19.823Z,10.82
2023-02-20T04:35:54.190Z,10.83
2023-02-20T04:38:27.990Z,10.73
2023-02-20T04:41:01.725Z,10.75
2023-02-20T04:43:35.089Z,10.74
2023-02-20T04:46:09.899Z,10.76
2023-02-20T04:48:43.346Z,10.74
2023-02-20T04:51:16.621Z,10.78
2023-02-20T04:53:50.148Z,10.75
2023-02-20T04:56:23.502Z,10.70
2023-02-20T04:58:56.687Z,10.74
2023-02-20T05:01:31.547Z,10.70
2023-02-20T05:04:05.567Z,10.70
2023-02-20T05:06:43.027Z,10.63
2023-02-20T05:09:17.060Z,10.63
2023-02-20T05:11:54.570Z,10.47
2023-02-20T05:14:28.371Z,10.49
2023-02-20T05:17:03.808Z,10.49
2023-02-20T05:19:37.024Z,10.49
2023-02-20T05:22:19.948Z,10.54
2023-02-20T05:24:53.528Z,10.53
2023-02-20T05:27:28.020Z,10.55
2023-02-20T05:30:03.098Z,10.49
2023-02-20T05:32:38.690Z,10.54
2023-02-20T05:35:12.216Z,10.60
2023-02-20T05:37:45.491Z,10.54
2023-02-20T05:40:18.776Z,10.61
2023-02-20T05:42:52.228Z,10.59
2023-02-20T05:45:25.446Z,10.63
2023-02-20T05:47:59.952Z,10.60
2023-02-20T05:50:33.511Z,10.57
2023-02-20T05:53:06.978Z,10.52
2023-02-20T05:55:40.276Z,10.49
2023-02-20T05:58:13.364Z,10.55
2023-02-20T06:00:47.318Z,10.39
2023-02-20T06:03:22.042Z,10.73
2023-02-20T06:05:56.486Z,10.74
2023-02-20T06:08:30.134Z,10.76
2023-02-20T06:11:03.255Z,10.96
2023-02-20T06:13:36.641Z,11.01
2023-02-20T06:16:10.972Z,11.08
2023-02-20T06:18:45.836Z,11.08
2023-02-20T06:21:20.854Z,11.19
2023-02-20T06:23:56.194Z,11.22
2023-02-20T06:26:29.717Z,11.21
2023-02-20T06:29:03.162Z,11.24
2023-02-20T06:31:37.144Z,11.32
2023-02-20T06:34:13.178Z,11.34
2023-02-20T06:36:47.047Z,11.34
2023-02-20T06:39:20.258Z,11.38
2023-02-20T06:41:53.683Z,11.43
2023-02-20T06:44:27.071Z,11.46
2023-02-20T06:47:00.656Z,11.50
2023-02-20T06:49:35.547Z,11.54
2023-02-20T06:52:10.253Z,11.50
2023-02-20T06:54:44.795Z,11.54
2023-02-20T06:57:18.138Z,11.57
2023-02-20T06:59:51.784Z,11.60
2023-02-20T07:02:25.185Z,11.61
2023-02-20T07:05:00.027Z,11.63
2023-02-20T07:07:34.210Z,11.63
2023-02-20T07:10:08.350Z,11.65
2023-02-20T07:12:42.345Z,11.71
2023-02-20T07:15:17.525Z,11.73
2023-02-20T07:17:52.508Z,11.78
2023-02-20T07:20:27.663Z,11.82
2023-02-20T07:23:01.108Z,11.88
2023-02-20T07:25:34.360Z,11.98
2023-02-20T07:28:08.609Z,12.00
2023-02-20T07:30:41.937Z,11.98
2023-02-20T07:33:15.279Z,12.11
2023-02-20T07:35:50.245Z,12.16
2023-02-20T07:38:23.535Z,12.28
2023-02-20T07:40:57.060Z,12.34
2023-02-20T07:43:30.439Z,12.41
2023-02-20T07:46:03.798Z,12.49
2023-02-20T07:48:37.042Z,12.53
2023-02-20T07:51:11.972Z,12.57
2023-02-20T07:53:49.514Z,12.66
2023-02-20T07:56:23.831Z,12.68
2023-02-20T07:58:57.980Z,12.78
2023-02-20T08:01:32.327Z,12.87
2023-02-20T08:04:06.265Z,12.91
2023-02-20T08:06:41.034Z,12.97
2023-02-20T08:09:14.944Z,12.95
2023-02-20T08:11:54.790Z,12.92
2023-02-20T08:14:28.755Z,13.04
2023-02-20T08:17:02.182Z,13.17
2023-02-20T08:19:35.967Z,13.14
2023-02-20T08:22:10.789Z,13.21
2023-02-20T08:24:44.474Z,13.20
2023-02-20T08:27:17.907Z,13.24
2023-02-20T08:29:51.619Z,13.35
2023-02-20T08:32:25.091Z,13.49
2023-02-20T08:34:59.062Z,13.53
2023-02-20T08:37:33.953Z,13.51
2023-02-20T08:40:08.917Z,13.55
2023-02-20T08:42:42.229Z,13.54
2023-02-20T08:45:15.792Z,13.63
2023-02-20T08:47:49.209Z,13.65
2023-02-20T08:50:23.005Z,13.76
2023-02-20T08:52:57.790Z,13.73
2023-02-20T08:55:31.640Z,13.83
2023-02-20T08:58:05.036Z,13.87
2023-02-20T09:00:38.508Z,14.00
2023-02-20T09:03:12.079Z,13.94
2023-02-20T09:05:45.678Z,13.95
2023-02-20T09:08:20.951Z,14.05
2023-02-20T09:10:55.083Z,13.98
2023-02-20T09:13:28.855Z,14.06
2023-02-20T09:16:03.208Z,14.03
2023-02-20T09:18:36.652Z,14.09
2023-02-20T09:21:11.220Z,14.03
2023-02-20T09:23:46.343Z,14.18
2023-02-20T09:26:19.548Z,14.13
2023-02-20T09:28:53.052Z,14.18
2023-02-20T09:31:26.329Z,14.25
2023-02-20T09:34:00.988Z,14.23
2023-02-20T09:36:34.542Z,14.18
2023-02-20T09:39:09.657Z,14.22
2023-02-20T09:41:58.198Z,14.41
2023-02-20T09:44:40.183Z,14.43
2023-02-20T09:47:35.240Z,14.47
2023-02-20T09:50:15.841Z,14.54
2023-02-20T09:53:00.893Z,14.47
2023-02-20T09:55:40.697Z,14.52
2023-02-20T09:58:27.442Z,14.51
2023-02-20T10:01:03.854Z,14.52
2023-02-20T10:03:44.782Z,14.48
2023-02-20T10:06:20.544Z,14.65
2023-02-20T10:08:54.683Z,14.64
2023-02-20T10:11:54.456Z,14.76
2023-02-20T10:14:44.321Z,14.72
2023-02-20T10:17:28.703Z,14.82
2023-02-20T10:20:03.869Z,14.88
2023-02-20T10:22:44.818Z,14.91
2023-02-20T10:25:25.691Z,14.90
2023-02-20T10:28:08.560Z,14.92
2023-02-20T10:30:45.806Z,14.88
2023-02-20T10:33:27.009Z,14.95
2023-02-20T10:36:08.499Z,15.00
2023-02-20T10:38:49.851Z,14.77
2023-02-20T10:41:32.608Z,15.10
2023-02-20T10:44:17.056Z,15.16
2023-02-20T10:46:57.563Z,15.07
2023-02-20T10:49:38.245Z,15.04
2023-02-20T10:52:29.573Z,15.10
2023-02-20T10:55:10.565Z,15.12
2023-02-20T10:57:48.450Z,15.21
2023-02-20T11:00:29.137Z,15.18
2023-02-20T11:03:08.200Z,15.12
2023-02-20T11:05:46.669Z,15.18
2023-02-20T11:08:21.869Z,15.32
2023-02-20T11:11:01.207Z,15.28
2023-02-20T11:13:35.828Z,15.29
2023-02-20T11:16:21.978Z,15.36
2023-02-20T11:19:07.325Z,15.42
2023-02-20T11:21:43.853Z,15.43
2023-02-20T11:24:26.777Z,15.45
2023-02-20T11:27:07.230Z,15.38
2023-02-20T11:29:50.056Z,15.53
2023-02-20T11:32:30.482Z,15.57
2023-02-20T11:35:13.153Z,15.58
2023-02-20T11:37:54.799Z,15.57
2023-02-20T11:40:31.737Z,15.46
2023-02-20T11:43:12.289Z,15.40
2023-02-20T11:45:45.611Z,15.46
2023-02-20T11:48:21.720Z,15.47
2023-02-20T11:50:55.391Z,15.60
2023-02-20T11:53:32.338Z,15.55
2023-02-20T11:56:12.657Z,15.37
2023-02-20T11:58:48.057Z,15.31
2023-02-20T12:01:30.927Z,15.57
2023-02-20T12:04:20.243Z,15.43
2023-02-20T12:06:53.925Z,15.32
2023-02-20T12:09:30.859Z,15.37
2023-02-20T12:12:05.230Z,15.32
2023-02-20T12:14:39.785Z,15.29
2023-02-20T12:17:25.196Z,15.19
2023-02-20T12:20:10.638Z,15.36
2023-02-20T12:22:49.124Z,15.30
2023-02-20T12:25:28.843Z,15.34
2023-02-20T12:28:15.458Z,15.27
2023-02-20T12:31:05.194Z,15.30
2023-02-20T12:34:03.146Z,15.30
2023-02-20T12:36:41.195Z,15.16
2023-02-20T12:39:24.823Z,15.07
2023-02-20T12:42:07.570Z,15.07
2023-02-20T12:45:09.110Z,15.25
2023-02-20T12:47:44.861Z,15.17
2023-02-20T12:50:40.531Z,15.14
2023-02-20T12:53:37.468Z,15.17
2023-02-20T12:56:28.367Z,14.86
2023-02-20T12:59:11.035Z,15.02
2023-02-20T13:01:45.602Z,15.26
2023-02-20T13:04:27.610Z,15.25
2023-02-20T13:07:07.391Z,15.19
2023-02-20T13:09:47.254Z,15.26
2023-02-20T13:12:21.678Z,15.21
2023-02-20T13:15:06.117Z,14.93
2023-02-20T13:17:46.361Z,15.21
2023-02-20T13:20:23.210Z,15.22
2023-02-20T13:23:04.530Z,15.19
2023-02-20T13:25:44.030Z,14.87
2023-02-20T13:28:27.951Z,15.00
2023-02-20T13:31:13.049Z,15.10
2023-02-20T13:33:47.954Z,15.16
2023-02-20T13:36:42.748Z,15.06
2023-02-20T13:39:45.902Z,15.05
2023-02-20T13:42:32.625Z,14.96
2023-02-20T13:45:41.593Z,14.94
2023-02-20T13:48:39.040Z,14.72
2023-02-20T13:51:35.481Z,14.89
2023-02-20T13:54:28.619Z,14.90
2023-02-20T13:57:11.001Z,14.82
2023-02-20T13:59:45.763Z,14.89
2023-02-20T14:02:24.226Z,14.78
2023-02-20T14:05:00.973Z,14.72
2023-02-20T14:07:39.413Z,14.89
2023-02-20T14:10:18.550Z,14.77
2023-02-20T14:13:03.277Z,14.77
2023-02-20T14:15:48.354Z,14.77
2023-02-20T14:18:23.168Z,14.71
2023-02-20T14:21:00.558Z,14.30
2023-02-20T14:23:35.539Z,14.61
2023-02-20T14:26:21.362Z,14.52
2023-02-20T14:28:56.745Z,14.54
2023-02-20T14:31:35.973Z,14.36
2023-02-20T14:34:13.364Z,14.63
2023-02-20T14:36:59.039Z,14.55
2023-02-20T14:39:45.046Z,14.58
2023-02-20T14:42:23.806Z,14.50
2023-02-20T14:45:02.694Z,14.47
2023-02-20T14:47:51.503Z,14.37
2023-02-20T14:50:26.810Z,14.33
2023-02-20T14:53:08.297Z,14.32
2023-02-20T14:55:42.553Z,14.32
2023-02-20T14:58:23.459Z,14.21
2023-02-20T15:00:57.829Z,14.24
2023-02-20T15:03:34.404Z,14.21
2023-02-20T15:06:08.530Z,14.12
2023-02-20T15:08:42.393Z,14.18
2023-02-20T15:11:16.685Z,14.12
2023-02-20T15:13:51.410Z,14.03
2023-02-20T15:16:27.638Z,14.02
2023-02-20T15:19:03.077Z,13.94
2023-02-20T15:21:39.351Z,13.98
2023-02-20T15:24:34.196Z,13.91
2023-02-20T15:27:13.124Z,13.84
2023-02-20T15:29:47.949Z,13.80
2023-02-20T15:32:24.459Z,13.58
2023-02-20T15:34:59.488Z,13.48
2023-02-20T15:37:39.279Z,13.62
2023-02-20T15:40:25.345Z,13.49
2023-02-20T15:43:04.346Z,13.39
2023-02-20T15:45:42.612Z,13.34
2023-02-20T15:48:16.185Z,13.27
2023-02-20T15:50:51.704Z,13.16
2023-02-20T15:53:27.516Z,13.10
2023-02-20T15:56:02.795Z,13.06
2023-02-20T15:58:40.057Z,12.92
2023-02-20T16:01:13.722Z,12.99
2023-02-20T16:03:53.080Z,12.87
2023-02-20T16:06:29.432Z,12.82
2023-02-20T16:09:03.058Z,12.74
2023-02-20T16:11:41.293Z,12.70
2023-02-20T16:14:16.901Z,12.59
2023-02-20T16:16:53.877Z,12.50
2023-02-20T16:19:41.748Z,12.41
2023-02-20T16:22:17.083Z,12.38
2023-02-20T16:24:50.529Z,12.28
2023-02-20T16:27:26.234Z,12.10
2023-02-20T16:29:59.869Z,12.12
2023-02-20T16:32:33.860Z,12.08
2023-02-20T16:35:07.758Z,12.08
2023-02-20T16:37:42.625Z,12.04
2023-02-20T16:40:16.441Z,11.95
2023-02-20T16:42:49.467Z,11.94
2023-02-20T16:45:23.485Z,11.81
2023-02-20T16:47:58.763Z,11.72
2023-02-20T16:50:34.308Z,11.64
2023-02-20T16:53:12.926Z,11.70
2023-02-20T16:55:47.397Z,11.68
2023-02-20T16:58:20.628Z,11.56
2023-02-20T17:00:57.910Z,11.39
2023-02-20T17:03:32.386Z,11.42
2023-02-20T17:06:06.136Z,11.42
2023-02-20T17:08:40.881Z,11.43
2023-02-20T17:11:14.299Z,11.29
2023-02-20T17:13:49.355Z,11.33
2023-02-20T17:16:31.478Z,11.30
2023-02-20T17:19:06.471Z,11.14
2023-02-20T17:21:39.645Z,11.16
2023-02-20T17:24:14.483Z,11.00
2023-02-20T17:26:48.890Z,11.04
2023-02-20T17:29:22.493Z,11.02
2023-02-20T17:31:56.420Z,10.91
2023-02-20T17:34:29.795Z,10.71
2023-02-20T17:37:03.155Z,10.66
2023-02-20T17:39:38.620Z,10.73
2023-02-20T17:42:12.554Z,10.60
2023-02-20T17:44:46.262Z,10.61
2023-02-20T17:47:20.326Z,10.43
2023-02-20T17:49:55.602Z,10.35
2023-02-20T17:52:28.911Z,10.39
2023-02-20T17:55:03.584Z,10.27
2023-02-20T17:57:37.150Z,10.22
2023-02-20T18:00:11.621Z,10.16
2023-02-20T18:02:45.623Z,10.18
2023-02-20T18:05:18.857Z,10.14
2023-02-20T18:07:52.160Z,10.04
2023-02-20T18:10:26.888Z,10.09
2023-02-20T18:13:03.465Z,10.10
2023-02-20T18:15:40.631Z,9.89
2023-02-20T18:18:15.632Z,9.73
2023-02-20T18:20:49.860Z,9.54
2023-02-20T18:23:23.274Z,9.67
2023-02-20T18:25:58.228Z,9.55
2023-02-20T18:28:31.540Z,9.57
2023-02-20T18:31:04.849Z,9.63
2023-02-20T18:33:38.668Z,9.51
2023-02-20T18:36:11.878Z,9.52
2023-02-20T18:38:45.206Z,9.41
2023-02-20T18:41:20.602Z,9.41
2023-02-20T18:43:54.400Z,9.37
2023-02-20T18:46:29.061Z,9.37
2023-02-20T18:49:03.357Z,9.26
2023-02-20T18:51:38.194Z,9.20
2023-02-20T18:54:18.176Z,9.23
2023-02-20T18:56:53.082Z,9.17
2023-02-20T18:59:27.244Z,9.15
2023-02-20T19:02:03.453Z,9.10
2023-02-20T19:04:37.086Z,8.94
2023-02-20T19:07:11.574Z,8.93
2023-02-20T19:09:45.100Z,8.78
2023-02-20T19:12:20.977Z,8.66
2023-02-20T19:14:56.710Z,8.71
2023-02-20T19:17:30.859Z,8.67
2023-02-20T19:20:05.889Z,8.59
2023-02-20T19:22:40.104Z,8.40
2023-02-20T19:25:14.069Z,8.41
2023-02-20T19:27:50.159Z,8.31
2023-02-20T19:30:23.593Z,8.39
2023-02-20T19:32:56.904Z,8.35
2023-02-20T19:35:30.531Z,8.32
2023-02-20T19:38:04.749Z,8.07
2023-02-20T19:40:38.028Z,8.19
2023-02-20T19:43:13.025Z,8.22
2023-02-20T19:45:48.310Z,8.16
2023-02-20T19:48:21.818Z,8.07
2023-02-20T19:50:56.310Z,8.00
2023-02-20T19:53:30.155Z,7.96
2023-02-20T19:56:03.594Z,7.88
2023-02-20T19:58:40.253Z,7.90
2023-02-20T20:01:15.868Z,7.78
2023-02-20T20:03:49.690Z,7.63
2023-02-20T20:06:27.466Z,7.69
2023-02-20T20:09:14.971Z,7.52
2023-02-20T20:11:50.787Z,7.79
2023-02-20T20:14:26.709Z,7.62
2023-02-20T20:17:02.874Z,7.64
2023-02-20T20:19:36.508Z,7.69
2023-02-20T20:22:10.446Z,7.81
2023-02-20T20:24:44.433Z,7.67
2023-02-20T20:27:20.768Z,7.69
2023-02-20T20:29:55.795Z,7.63
2023-02-20T20:32:29.273Z,7.77
2023-02-20T20:35:02.742Z,7.89
2023-02-20T20:37:36.398Z,7.89
2023-02-20T20:40:10.159Z,7.67
2023-02-20T20:42:44.579Z,7.63
2023-02-20T20:45:20.218Z,7.46
2023-02-20T20:47:53.368Z,7.46
2023-02-20T20:50:28.761Z,7.58
2023-02-20T20:53:02.755Z,7.58
2023-02-20T20:55:35.662Z,7.58
2023-02-20T20:58:09.972Z,7.34
2023-02-20T21:00:44.817Z,7.28
2023-02-20T21:03:21.045Z,7.07
2023-02-20T21:05:54.665Z,7.00
2023-02-20T21:08:28.008Z,6.96
2023-02-20T21:11:01.851Z,7.15
2023-02-20T21:13:37.644Z,7.35
2023-02-20T21:16:12.679Z,7.36
2023-02-20T21:18:46.290Z,7.26
2023-02-20T21:21:25.372Z,7.32
2023-02-20T21:23:58.888Z,7.28
2023-02-20T21:26:34.265Z,7.36
2023-02-20T21:29:08.748Z,7.15
2023-02-20T21:31:44.637Z,7.28
2023-02-20T21:34:18.055Z,6.97
2023-02-20T21:36:51.696Z,7.02
2023-02-20T21:39:25.394Z,7.24
2023-02-20T21:42:16.329Z,7.21
2023-02-20T21:44:49.595Z,7.13
2023-02-20T21:47:24.480Z,7.11
2023-02-20T21:49:58.066Z,6.95
2023-02-20T21:52:36.953Z,7.02
2023-02-20T21:55:12.867Z,7.13
2023-02-20T21:57:46.276Z,7.31
2023-02-20T22:00:18.767Z,7.31
2023-02-20T22:02:52.708Z,7.04
2023-02-20T22:05:25.348Z,7.15
2023-02-20T22:08:16.418Z,7.23
2023-02-20T22:11:07.660Z,7.03
2023-02-20T22:13:59.012Z,7.12
2023-02-20T22:16:50.351Z,7.04
2023-02-20T22:19:42.322Z,6.81
2023-02-20T22:22:33.250Z,6.86
2023-02-20T22:25:25.731Z,7.11
2023-02-20T22:28:17.887Z,7.27
2023-02-20T22:31:09.071Z,6.93
2023-02-20T22:34:00.630Z,7.09
2023-02-20T22:36:53.308Z,7.05
2023-02-20T22:39:44.201Z,7.24
2023-02-20T22:42:35.647Z,7.41
2023-02-20T22:45:28.787Z,7.28
2023-02-20T22:48:19.711Z,7.23
2023-02-20T22:51:10.902Z,7.22
2023-02-20T22:54:04.229Z,7.05
2023-02-20T22:56:55.373Z,7.22
2023-02-20T22:59:46.722Z,7.15
2023-02-20T23:02:37.716Z,7.32
2023-02-20T23:05:29.362Z,7.12
2023-02-20T23:08:20.496Z,7.16
2023-02-20T23:11:12.800Z,7.25
2023-02-20T23:14:05.182Z,7.35
2023-02-20T23:16:56.639Z,7.38
2023-02-20T23:19:47.165Z,6.85
2023-02-20T23:22:37.947Z,7.03
2023-02-20T23:25:28.617Z,7.17
2023-02-20T23:28:29.032Z,7.24
2023-02-20T23:31:27.490Z,7.23
2023-02-20T23:34:18.976Z,7.31
2023-02-20T23:37:11.851Z,7.04
2023-02-20T23:40:02.648Z,7.17
2023-02-20T23:42:53.372Z,7.05
2023-02-20T23:45:45.708Z,7.04
2023-02-20T23:48:36.326Z,7.04
2023-02-20T23:51:28.921Z,7.07
2023-02-20T23:54:19.292Z,7.11
2023-02-20T23:57:10.314Z,6.75
